Time;durP1;ratioP1;P1;durP2;ratioP2;P2;SDS_P1;SDS_P2;PMS_P1;PMS_P2;Temp;Humidity;BMP_temperature;BMP_pressure;BME280_temperature;BME280_humidity;BME280_pressure;Samples;Min_cycle;Max_cycle;Signal;HPM_P1;HPM_P2
2022/07/05 00:02:12;;;;;;;19.00;14.33;;;22.10;67.60;;;;;;1908339;75;21016;-66
2022/07/05 00:04:41;;;;;;;19.67;14.05;;;22.00;67.50;;;;;;1908416;75;21089;-66
2022/07/05 00:07:20;;;;;;;15.53;12.73;;;22.00;67.30;;;;;;1908469;75;21063;-66
2022/07/05 00:09:52;;;;;;;19.25;13.65;;;22.00;67.30;;;;;;1908443;75;21043;-66
2022/07/05 00:12:24;;;;;;;17.48;14.50;;;22.00;67.50;;;;;;1908317;75;21033;-66
2022/07/05 00:14:53;;;;;;;19.23;14.78;;;21.90;67.20;;;;;;1908384;75;21031;-66
2022/07/05 00:17:22;;;;;;;16.02;13.78;;;21.90;67.30;;;;;;1908451;75;21029;-67
2022/07/05 00:19:52;;;;;;;16.30;12.70;;;21.90;67.20;;;;;;1908625;75;21023;-67
2022/07/05 00:22:21;;;;;;;17.55;13.18;;;21.90;67.40;;;;;;1908427;75;21023;-66
2022/07/05 00:24:51;;;;;;;20.00;13.58;;;21.90;67.60;;;;;;1908474;75;21027;-66
2022/07/05 00:27:20;;;;;;;18.20;13.85;;;21.90;67.60;;;;;;1908525;74;21024;-66
2022/07/05 00:29:50;;;;;;;16.25;13.28;;;21.90;67.20;;;;;;1908505;75;21085;-66
2022/07/05 00:32:19;;;;;;;18.52;13.10;;;21.90;67.60;;;;;;1908478;75;21027;-66
2022/07/05 00:34:49;;;;;;;16.75;13.20;;;21.90;67.50;;;;;;1908510;75;21110;-67
2022/07/05 00:37:18;;;;;;;17.95;13.98;;;21.80;67.70;;;;;;1908355;75;21040;-67
2022/07/05 00:39:48;;;;;;;17.27;13.00;;;21.80;67.60;;;;;;1908407;75;21540;-66
2022/07/05 00:42:17;;;;;;;15.65;13.22;;;21.70;67.70;;;;;;1908357;75;21004;-66
2022/07/05 00:44:46;;;;;;;16.87;14.78;;;21.70;68.00;;;;;;1908374;75;21089;-66
2022/07/05 00:47:16;;;;;;;20.10;14.83;;;21.70;67.90;;;;;;1908390;75;21094;-66
2022/07/05 00:49:46;;;;;;;18.07;13.72;;;21.70;67.70;;;;;;1908433;75;21048;-67
2022/07/05 00:52:16;;;;;;;17.20;13.35;;;21.70;67.90;;;;;;1908317;75;21032;-66
2022/07/05 00:54:46;;;;;;;18.30;13.90;;;21.70;68.30;;;;;;1908507;75;21019;-66
2022/07/05 00:57:16;;;;;;;16.52;13.90;;;21.70;68.20;;;;;;1908392;75;21055;-66
2022/07/05 00:59:45;;;;;;;18.05;13.95;;;21.70;68.20;;;;;;1908505;75;21024;-66
2022/07/05 01:02:15;;;;;;;15.32;11.95;;;21.60;68.10;;;;;;1908343;75;21081;-66
2022/07/05 01:04:44;;;;;;;17.55;13.35;;;21.60;68.60;;;;;;1908594;75;21087;-66
2022/07/05 01:07:14;;;;;;;20.40;14.35;;;21.50;68.90;;;;;;1908373;75;21023;-66
2022/07/05 01:09:43;;;;;;;16.70;13.65;;;21.50;69.00;;;;;;1908395;75;21008;-66
2022/07/05 01:12:13;;;;;;;16.23;13.40;;;21.50;68.90;;;;;;1908355;75;21059;-66
2022/07/05 01:14:44;;;;;;;17.20;14.07;;;21.40;68.60;;;;;;1908385;75;21023;-66
2022/07/05 01:17:13;;;;;;;16.07;12.98;;;21.40;68.70;;;;;;1908368;74;21078;-66
2022/07/05 01:19:43;;;;;;;17.98;14.23;;;21.40;69.20;;;;;;1908460;75;21458;-66
2022/07/05 01:22:20;;;;;;;16.65;13.55;;;21.30;69.10;;;;;;1908335;74;21015;-66
2022/07/05 01:24:51;;;;;;;18.77;14.35;;;21.30;69.00;;;;;;1908410;75;21039;-66
2022/07/05 01:27:21;;;;;;;19.00;13.90;;;21.30;69.20;;;;;;1908313;75;21097;-66
2022/07/05 01:29:50;;;;;;;21.15;14.70;;;21.30;69.60;;;;;;1908504;75;21025;-66
2022/07/05 01:32:20;;;;;;;19.05;14.25;;;21.30;69.50;;;;;;1908446;74;21020;-66
2022/07/05 01:34:49;;;;;;;21.05;14.13;;;21.30;69.60;;;;;;1908382;75;21023;-66
2022/07/05 01:37:19;;;;;;;18.67;14.15;;;21.30;69.80;;;;;;1908518;75;21032;-66
2022/07/05 01:39:49;;;;;;;18.40;14.23;;;21.30;69.80;;;;;;1908366;75;21081;-67
2022/07/05 01:42:18;;;;;;;24.27;14.78;;;21.30;69.50;;;;;;1908355;75;21136;-66
2022/07/05 01:44:48;;;;;;;109.30;20.60;;;21.30;69.60;;;;;;1908425;75;21059;-66
2022/07/05 01:47:17;;;;;;;26.82;14.28;;;21.30;69.90;;;;;;1908460;75;21031;-66
2022/07/05 01:49:49;;;;;;;40.20;15.70;;;21.20;70.10;;;;;;1908493;75;21093;-66
2022/07/05 01:52:20;;;;;;;39.42;16.00;;;21.30;70.20;;;;;;1908280;75;21083;-66
2022/07/05 01:54:50;;;;;;;21.05;14.40;;;21.20;69.90;;;;;;1908378;75;21052;-66
2022/07/05 01:57:20;;;;;;;24.30;15.08;;;21.20;69.90;;;;;;1908293;74;21201;-66
2022/07/05 01:59:50;;;;;;;21.17;13.95;;;21.20;69.80;;;;;;1908437;75;21117;-66
2022/07/05 02:02:20;;;;;;;33.67;16.62;;;21.20;70.00;;;;;;1908367;75;21133;-66
2022/07/05 02:04:49;;;;;;;50.10;19.23;;;21.20;69.70;;;;;;1908301;75;21024;-67
2022/07/05 02:07:19;;;;;;;18.67;14.50;;;21.20;69.40;;;;;;1908407;75;21008;-66
2022/07/05 02:09:49;;;;;;;19.42;13.83;;;21.20;69.40;;;;;;1908514;75;21090;-67
2022/07/05 02:12:18;;;;;;;18.20;14.38;;;21.20;69.20;;;;;;1908278;75;21089;-67
2022/07/05 02:14:48;;;;;;;19.27;13.88;;;21.10;69.40;;;;;;1908339;75;21000;-66
2022/07/05 02:17:19;;;;;;;20.75;14.15;;;21.00;70.00;;;;;;1908409;75;21023;-67
2022/07/05 02:19:50;;;;;;;17.35;14.05;;;21.00;70.40;;;;;;1908137;74;21055;-67
2022/07/05 02:22:20;;;;;;;20.12;14.23;;;20.90;70.50;;;;;;1908394;75;21035;-66
2022/07/05 02:24:50;;;;;;;21.33;14.05;;;20.90;70.60;;;;;;1908299;75;21105;-66
2022/07/05 02:27:21;;;;;;;19.90;14.90;;;21.00;70.60;;;;;;1907997;75;21082;-66
2022/07/05 02:29:51;;;;;;;19.07;14.18;;;21.00;70.40;;;;;;1908385;74;21035;-66
2022/07/05 02:32:22;;;;;;;18.40;14.00;;;20.90;70.10;;;;;;1907784;75;21055;-66
2022/07/05 02:34:51;;;;;;;21.95;15.03;;;20.90;70.30;;;;;;1908382;75;21027;-66
2022/07/05 02:37:21;;;;;;;322.60;39.92;;;20.90;70.60;;;;;;1908304;74;21073;-67
2022/07/05 02:39:51;;;;;;;24.18;14.58;;;20.90;70.50;;;;;;1908462;74;21090;-67
2022/07/05 02:42:20;;;;;;;19.27;14.15;;;21.00;70.50;;;;;;1908363;75;21032;-66
2022/07/05 02:44:50;;;;;;;18.87;14.30;;;21.00;70.50;;;;;;1908445;75;21027;-67
2022/07/05 02:47:20;;;;;;;18.62;14.13;;;21.10;70.40;;;;;;1908607;75;21039;-66
2022/07/05 02:49:51;;;;;;;18.00;14.45;;;21.30;70.40;;;;;;1908494;75;21063;-67
2022/07/05 02:52:21;;;;;;;22.67;14.30;;;21.40;70.40;;;;;;1908384;75;21032;-67
2022/07/05 02:54:50;;;;;;;21.02;14.45;;;21.50;69.90;;;;;;1908426;75;21085;-67
2022/07/05 02:57:20;;;;;;;19.82;13.53;;;21.60;69.90;;;;;;1908412;74;21125;-67
2022/07/05 02:59:50;;;;;;;59.45;18.30;;;21.60;69.70;;;;;;1883184;75;21082;-67
2022/07/05 03:02:19;;;;;;;20.48;13.60;;;21.70;69.40;;;;;;1908430;75;21032;-67
2022/07/05 03:04:49;;;;;;;18.60;13.93;;;21.70;69.10;;;;;;1908443;75;21040;-67
2022/07/05 03:07:19;;;;;;;20.23;14.53;;;21.70;69.00;;;;;;1908404;75;21020;-67
2022/07/05 03:09:49;;;;;;;16.73;13.18;;;21.70;68.90;;;;;;1908604;75;21074;-67
2022/07/05 03:12:18;;;;;;;19.10;14.43;;;21.70;68.80;;;;;;1908469;74;21175;-67
2022/07/05 03:14:48;;;;;;;21.00;14.83;;;21.70;68.60;;;;;;1908692;75;20996;-67
2022/07/05 03:17:18;;;;;;;22.60;14.85;;;21.60;68.60;;;;;;1908546;75;21016;-67
2022/07/05 03:19:48;;;;;;;20.20;15.25;;;21.70;68.50;;;;;;1908624;75;21016;-67
2022/07/05 03:22:18;;;;;;;22.40;13.72;;;21.70;68.40;;;;;;1908587;74;21501;-67
2022/07/05 03:24:47;;;;;;;22.67;14.65;;;21.70;68.50;;;;;;1908528;75;21007;-67
2022/07/05 03:27:18;;;;;;;19.37;14.63;;;21.70;68.70;;;;;;1908619;74;21101;-67
2022/07/05 03:29:49;;;;;;;20.88;14.20;;;21.80;68.70;;;;;;1908506;74;21079;-67
2022/07/05 03:32:18;;;;;;;23.35;14.85;;;21.90;68.40;;;;;;1908607;75;21031;-67
2022/07/05 03:34:48;;;;;;;18.42;13.60;;;22.00;68.30;;;;;;1908618;75;21039;-67
2022/07/05 03:37:18;;;;;;;17.70;14.18;;;22.20;68.30;;;;;;1908606;74;21121;-67
2022/07/05 03:39:48;;;;;;;23.73;14.35;;;22.30;68.70;;;;;;1908552;75;21093;-66
2022/07/05 03:42:18;;;;;;;21.50;14.90;;;22.40;68.00;;;;;;1908458;75;21020;-66
2022/07/05 03:44:48;;;;;;;21.07;14.63;;;22.50;67.70;;;;;;1908564;74;21032;-66
2022/07/05 03:47:17;;;;;;;25.60;13.58;;;22.70;67.70;;;;;;1908582;75;21087;-67
2022/07/05 03:49:47;;;;;;;17.95;14.73;;;22.90;67.30;;;;;;1908587;74;21089;-67
2022/07/05 03:52:17;;;;;;;21.73;14.55;;;22.90;67.10;;;;;;1883229;75;21024;-67
2022/07/05 03:54:46;;;;;;;19.07;14.55;;;23.00;66.90;;;;;;1908570;74;21028;-67
2022/07/05 03:57:16;;;;;;;17.23;13.70;;;23.10;66.80;;;;;;1908474;74;21117;-67
2022/07/05 03:59:46;;;;;;;18.52;14.33;;;23.10;66.80;;;;;;1908629;75;21008;-67
2022/07/05 04:02:16;;;;;;;19.90;14.35;;;23.10;66.90;;;;;;1908607;74;21011;-67
2022/07/05 04:04:46;;;;;;;21.25;13.78;;;23.20;67.00;;;;;;1908524;75;21051;-67
2022/07/05 04:07:16;;;;;;;20.23;14.07;;;23.30;67.00;;;;;;1908488;75;21071;-67
2022/07/05 04:09:45;;;;;;;18.55;14.43;;;23.40;67.10;;;;;;1908619;74;21152;-67
2022/07/05 04:12:15;;;;;;;18.17;14.07;;;23.50;66.80;;;;;;1908441;75;21204;-67
2022/07/05 04:14:44;;;;;;;21.95;14.73;;;23.70;66.70;;;;;;1908496;75;21443;-67
2022/07/05 04:17:14;;;;;;;27.82;15.80;;;23.80;66.50;;;;;;1908500;74;21028;-67
2022/07/05 04:19:44;;;;;;;37.17;16.57;;;23.90;66.30;;;;;;1908529;75;21012;-67
2022/07/05 04:22:13;;;;;;;24.37;14.87;;;23.90;66.10;;;;;;1908445;74;21004;-67
2022/07/05 04:27:30;;;;;;;16.55;13.98;;;24.10;66.00;;;;;;1908428;75;21133;-68
2022/07/05 04:30:00;;;;;;;25.50;14.87;;;24.20;65.80;;;;;;1908453;75;21050;-68
2022/07/05 04:32:30;;;;;;;23.50;14.95;;;24.30;65.60;;;;;;1882866;75;20992;-68
2022/07/05 04:35:00;;;;;;;20.88;15.08;;;24.30;65.80;;;;;;1908333;75;21016;-68
2022/07/05 04:37:29;;;;;;;25.90;15.13;;;24.30;65.60;;;;;;1908474;75;21039;-68
2022/07/05 04:39:59;;;;;;;24.65;15.18;;;24.40;65.40;;;;;;1908437;75;21027;-67
2022/07/05 04:42:29;;;;;;;18.10;14.33;;;24.50;65.40;;;;;;1908394;75;21075;-67
2022/07/05 04:44:58;;;;;;;23.40;15.10;;;24.60;65.30;;;;;;1908504;75;21032;-67
2022/07/05 04:47:28;;;;;;;20.80;16.10;;;24.70;65.10;;;;;;1908433;74;21067;-67
2022/07/05 04:49:58;;;;;;;23.55;14.30;;;24.80;65.10;;;;;;1908428;74;21089;-67
2022/07/05 04:52:28;;;;;;;24.23;15.53;;;25.00;64.90;;;;;;1883047;75;21059;-67
2022/07/05 04:54:57;;;;;;;19.57;13.50;;;25.10;64.70;;;;;;1908374;75;21035;-66
2022/07/05 04:57:26;;;;;;;21.27;13.55;;;25.30;64.50;;;;;;1909248;74;21063;-66
2022/07/05 04:59:56;;;;;;;17.95;13.90;;;25.40;64.20;;;;;;1930316;74;21074;-66
2022/07/05 05:02:26;;;;;;;18.70;13.95;;;25.50;63.90;;;;;;1930402;74;21089;-66
2022/07/05 05:04:55;;;;;;;20.48;14.10;;;25.60;63.60;;;;;;1930330;74;21023;-66
2022/07/05 05:07:25;;;;;;;23.90;13.43;;;25.70;63.40;;;;;;1930380;74;21073;-66
2022/07/05 05:09:54;;;;;;;25.40;12.90;;;25.90;62.90;;;;;;1930380;74;21021;-66
2022/07/05 05:12:23;;;;;;;31.65;13.60;;;26.10;62.30;;;;;;1930199;74;21023;-66
2022/07/05 05:14:53;;;;;;;23.32;13.00;;;26.20;62.10;;;;;;1930398;74;21084;-66
2022/07/05 05:17:22;;;;;;;21.33;12.60;;;26.30;61.80;;;;;;1930534;74;21035;-66
2022/07/05 05:19:51;;;;;;;19.85;12.73;;;26.40;61.10;;;;;;1930455;74;21007;-66
2022/07/05 05:22:21;;;;;;;25.85;12.30;;;26.50;60.60;;;;;;1930359;74;20999;-66
2022/07/05 05:27:48;;;;;;;13.85;11.50;;;26.70;58.00;;;;;;1928738;74;21035;-66
2022/07/05 05:30:19;;;;;;;18.27;12.05;;;26.80;58.30;;;;;;1928853;74;21046;-66
2022/07/05 05:32:49;;;;;;;21.52;11.25;;;26.90;57.10;;;;;;1928566;74;21097;-66
2022/07/05 05:35:20;;;;;;;15.72;11.55;;;26.90;55.50;;;;;;1928691;74;21023;-66
2022/07/05 05:37:53;;;;;;;16.30;11.53;;;27.00;55.20;;;;;;1928903;74;21011;-66
2022/07/05 05:40:24;;;;;;;15.23;11.08;;;27.10;54.90;;;;;;1928894;74;21064;-66
2022/07/05 05:42:55;;;;;;;16.70;11.25;;;27.30;54.50;;;;;;1928737;74;20999;-66
2022/07/05 05:45:24;;;;;;;49.50;13.80;;;27.30;54.60;;;;;;1928900;74;21039;-66
2022/07/05 05:47:56;;;;;;;17.65;10.98;;;27.40;54.00;;;;;;1928801;74;21543;-66
2022/07/05 05:50:34;;;;;;;14.35;10.50;;;27.50;53.40;;;;;;1928737;74;21031;-66
2022/07/05 05:53:03;;;;;;;14.38;10.45;;;27.60;52.90;;;;;;1928833;74;21070;-66
2022/07/05 05:55:33;;;;;;;15.20;9.83;;;27.60;51.90;;;;;;1928826;74;21070;-66
2022/07/05 05:58:17;;;;;;;17.45;11.33;;;27.70;51.60;;;;;;1928949;74;21067;-66
2022/07/05 06:00:52;;;;;;;21.05;13.15;;;27.70;52.00;;;;;;1882195;76;21437;-66
2022/07/05 06:03:26;;;;;;;14.78;11.18;;;27.80;51.60;;;;;;1928857;74;21031;-66
2022/07/05 06:05:55;;;;;;;15.60;11.15;;;28.00;50.90;;;;;;1928817;74;21096;-65
2022/07/05 06:08:25;;;;;;;15.93;11.63;;;28.00;49.90;;;;;;1928794;74;21004;-66
2022/07/05 06:10:54;;;;;;;33.67;12.50;;;28.00;49.00;;;;;;1928700;74;21097;-66
2022/07/05 06:13:23;;;;;;;16.42;11.20;;;28.10;48.70;;;;;;1928700;74;21062;-66
2022/07/05 06:15:53;;;;;;;16.40;10.58;;;28.20;48.50;;;;;;1928872;74;21132;-66
2022/07/05 06:18:22;;;;;;;15.50;10.90;;;28.30;48.70;;;;;;1928861;74;21101;-66
2022/07/05 06:20:52;;;;;;;20.85;11.73;;;28.30;48.60;;;;;;1929073;74;21003;-66
2022/07/05 06:23:21;;;;;;;21.00;12.68;;;28.40;48.50;;;;;;1928903;74;21043;-66
2022/07/05 06:25:51;;;;;;;22.00;12.47;;;28.60;48.50;;;;;;1928217;74;21031;-65
2022/07/05 06:28:40;;;;;;;14.98;10.60;;;28.60;47.90;;;;;;1919985;74;21109;-66
2022/07/05 06:31:10;;;;;;;20.15;13.20;;;28.60;47.60;;;;;;1864803;76;21043;-66
2022/07/05 06:33:39;;;;;;;14.90;11.18;;;28.60;48.10;;;;;;1864828;76;21116;-66
2022/07/05 06:36:09;;;;;;;18.92;12.85;;;28.70;47.70;;;;;;1864845;77;21054;-66
2022/07/05 06:38:38;;;;;;;22.65;12.82;;;28.80;47.80;;;;;;1864714;76;21055;-66
2022/07/05 06:41:08;;;;;;;16.20;11.80;;;28.90;47.70;;;;;;1864712;76;21011;-65
2022/07/05 06:43:37;;;;;;;25.50;12.45;;;28.90;48.10;;;;;;1864889;77;21085;-66
2022/07/05 06:46:08;;;;;;;21.07;13.25;;;29.00;47.60;;;;;;1768926;80;21075;-65
2022/07/05 06:48:37;;;;;;;17.25;11.68;;;29.00;47.10;;;;;;1799046;77;21055;-66
2022/07/05 06:51:06;;;;;;;18.65;12.03;;;29.00;47.00;;;;;;1792865;79;21477;-66
2022/07/05 06:53:36;;;;;;;19.10;12.15;;;29.10;47.70;;;;;;1792844;79;21117;-65
2022/07/05 06:56:06;;;;;;;18.55;11.22;;;29.20;47.60;;;;;;1792896;79;21071;-66
2022/07/05 06:58:35;;;;;;;23.05;11.75;;;29.20;46.90;;;;;;1792819;79;21106;-65
2022/07/05 07:01:04;;;;;;;18.73;11.22;;;29.20;46.50;;;;;;1792884;79;21502;-65
2022/07/05 07:03:34;;;;;;;15.43;11.30;;;29.30;46.20;;;;;;1792888;80;21071;-65
2022/07/05 07:06:04;;;;;;;20.60;12.10;;;29.30;45.80;;;;;;1792857;80;21094;-65
2022/07/05 07:11:20;;;;;;;14.23;10.15;;;29.50;45.70;;;;;;1792851;80;21058;-65
2022/07/05 07:13:49;;;;;;;22.52;10.50;;;29.60;45.30;;;;;;1792977;79;21110;-65
2022/07/05 07:16:18;;;;;;;18.12;10.23;;;29.70;44.80;;;;;;1792876;80;21051;-65
2022/07/05 07:18:48;;;;;;;18.23;9.63;;;29.80;44.50;;;;;;1792928;79;21109;-65
2022/07/05 07:21:17;;;;;;;15.50;10.35;;;29.90;44.40;;;;;;1792904;79;21067;-65
2022/07/05 07:23:46;;;;;;;14.13;9.18;;;29.90;43.80;;;;;;1792944;79;21051;-65
2022/07/05 07:26:16;;;;;;;19.12;10.28;;;30.00;44.00;;;;;;1792930;80;21047;-65
2022/07/05 07:28:45;;;;;;;13.72;9.25;;;30.00;43.20;;;;;;1792859;79;21047;-65
2022/07/05 07:31:14;;;;;;;11.57;9.98;;;30.00;43.00;;;;;;1808163;78;21132;-65
2022/07/05 07:33:44;;;;;;;15.30;9.85;;;30.10;43.00;;;;;;1905568;75;21094;-65
2022/07/05 07:36:13;;;;;;;19.60;10.40;;;30.10;42.40;;;;;;1905639;75;21094;-64
2022/07/05 07:38:43;;;;;;;13.90;8.95;;;30.00;41.70;;;;;;1904226;75;21111;-62
2022/07/05 07:41:12;;;;;;;14.85;9.65;;;30.00;42.60;;;;;;1905108;75;21070;-64
2022/07/05 07:43:42;;;;;;;17.92;9.60;;;30.00;42.70;;;;;;1905005;75;21139;-65
2022/07/05 07:46:11;;;;;;;17.67;10.00;;;30.10;42.80;;;;;;1904730;75;21002;-62
2022/07/05 07:48:40;;;;;;;16.75;10.13;;;30.20;42.50;;;;;;1904977;75;21030;-63
2022/07/05 07:51:10;;;;;;;41.10;13.30;;;30.20;42.10;;;;;;1904998;75;21030;-62
2022/07/05 07:53:39;;;;;;;16.48;9.83;;;30.20;41.90;;;;;;1904727;75;21046;-64
2022/07/05 07:56:09;;;;;;;13.48;9.53;;;30.30;41.70;;;;;;1904844;75;21099;-61
2022/07/05 07:58:38;;;;;;;10.03;8.73;;;30.40;41.70;;;;;;1904868;74;21054;-60
2022/07/05 08:01:10;;;;;;;10.80;7.80;;;30.50;41.40;;;;;;1904744;75;21081;-64
2022/07/05 08:03:39;;;;;;;13.55;7.80;;;30.60;41.40;;;;;;1904875;75;21540;-63
2022/07/05 08:06:15;;;;;;;9.23;7.55;;;30.60;40.70;;;;;;1904814;75;21118;-61
2022/07/05 08:08:44;;;;;;;13.78;8.80;;;30.60;40.10;;;;;;1903127;75;21096;-62
2022/07/05 08:11:14;;;;;;;14.40;9.03;;;30.70;40.20;;;;;;1894619;75;21080;-63
2022/07/05 08:13:43;;;;;;;11.15;7.95;;;30.80;40.20;;;;;;1888043;76;21057;-65
2022/07/05 08:16:13;;;;;;;12.18;7.55;;;30.80;39.70;;;;;;1888101;76;21076;-67
2022/07/05 08:21:32;;;;;;;9.98;7.80;;;30.90;39.70;;;;;;1888072;76;21107;-66
2022/07/05 08:24:03;;;;;;;16.42;8.15;;;31.00;39.60;;;;;;1888100;76;21072;-64
2022/07/05 08:26:33;;;;;;;9.13;7.22;;;31.10;39.50;;;;;;1888178;76;21461;-61
2022/07/05 08:29:04;;;;;;;13.70;7.10;;;31.10;39.90;;;;;;1888142;76;21025;-62
2022/07/05 08:31:36;;;;;;;10.90;7.08;;;31.20;39.20;;;;;;1866607;76;21080;-66
2022/07/05 08:34:05;;;;;;;19.00;7.20;;;31.20;39.30;;;;;;1858623;77;21165;-64
2022/07/05 08:36:34;;;;;;;10.43;7.17;;;31.20;39.00;;;;;;1858481;77;21460;-64
2022/07/05 08:39:04;;;;;;;9.00;6.67;;;31.30;39.20;;;;;;1858427;77;21037;-62
2022/07/05 08:41:36;;;;;;;10.10;6.75;;;31.30;39.00;;;;;;1858449;77;21087;-70
2022/07/05 08:44:07;;;;;;;7.30;5.95;;;31.40;38.90;;;;;;1858489;77;21079;-64
2022/07/05 08:46:43;;;;;;;9.03;6.42;;;31.50;39.10;;;;;;1858628;77;21025;-60
2022/07/05 08:49:14;;;;;;;8.58;6.28;;;31.50;39.20;;;;;;1858501;76;21107;-62
2022/07/05 08:51:44;;;;;;;11.70;6.78;;;31.60;39.20;;;;;;1815397;79;21089;-62
2022/07/05 08:54:13;;;;;;;10.82;6.53;;;31.60;39.40;;;;;;1858685;77;21150;-62
2022/07/05 08:56:43;;;;;;;10.28;6.87;;;31.70;38.40;;;;;;1815479;79;21101;-62
2022/07/05 08:59:13;;;;;;;12.43;6.53;;;31.70;38.30;;;;;;1858452;77;21107;-60
2022/07/05 09:01:44;;;;;;;12.55;6.85;;;31.80;38.80;;;;;;1815563;78;21058;-62
2022/07/05 09:04:16;;;;;;;8.75;6.50;;;31.90;39.20;;;;;;1858973;77;22029;-60
2022/07/05 09:06:48;;;;;;;13.88;6.90;;;31.90;39.00;;;;;;1788761;79;21581;-66
2022/07/05 09:09:19;;;;;;;10.00;6.67;;;32.00;38.60;;;;;;1860218;76;21049;-64
2022/07/05 09:11:48;;;;;;;10.63;6.40;;;32.00;38.80;;;;;;1860116;76;21074;-63
2022/07/05 09:14:23;;;;;;;9.05;6.20;;;32.00;39.20;;;;;;1788628;80;21067;-63
2022/07/05 09:16:51;;;;;;;;;;;32.00;39.10;;;;;;1862701;77;21086;-64
2022/07/05 09:19:20;;;;;;;8.83;6.15;;;32.00;38.20;;;;;;1859825;77;20163;-66
2022/07/05 09:21:52;;;;;;;9.23;6.75;;;31.90;38.90;;;;;;1788665;79;21051;-61
2022/07/05 09:24:22;;;;;;;11.90;7.50;;;31.80;38.90;;;;;;1858106;76;21088;-65
2022/07/05 09:26:52;;;;;;;16.75;7.62;;;31.80;39.40;;;;;;1859957;76;21075;-62
2022/07/05 09:29:22;;;;;;;8.13;6.83;;;31.80;39.70;;;;;;1859892;77;21087;-61
2022/07/05 09:31:52;;;;;;;11.57;8.53;;;31.90;39.70;;;;;;1885917;73;21167;-65
2022/07/05 09:34:22;;;;;;;9.53;6.78;;;31.90;39.80;;;;;;1906115;75;20997;-60
2022/07/05 09:36:57;;;;;;;20.90;8.35;;;31.90;39.60;;;;;;1900049;75;21013;-62
2022/07/05 09:39:38;;;;;;;10.13;7.50;;;31.90;39.80;;;;;;1908597;75;21054;-62
2022/07/05 09:42:19;;;;;;;12.55;7.50;;;32.00;39.90;;;;;;1905538;75;21112;-62
2022/07/05 09:44:50;;;;;;;16.48;7.80;;;32.00;40.00;;;;;;1913911;74;21078;-61
2022/07/05 09:47:21;;;;;;;9.90;7.28;;;32.00;40.00;;;;;;1905954;74;21023;-62
2022/07/05 09:50:04;;;;;;;9.75;7.28;;;32.00;40.40;;;;;;1907794;75;21010;-63
2022/07/05 09:52:33;;;;;;;11.95;7.80;;;32.00;40.40;;;;;;1901872;74;21892;-60
2022/07/05 09:55:18;;;;;;;11.33;7.30;;;32.10;39.60;;;;;;1905556;74;21141;-64
2022/07/05 09:57:47;;;;;;;14.45;7.28;;;32.20;39.80;;;;;;1906697;75;21026;-65
2022/07/05 10:00:21;;;;;;;8.30;7.15;;;32.20;40.10;;;;;;1906684;75;21058;-67
2022/07/05 10:03:01;;;;;;;8.33;6.40;;;32.20;39.80;;;;;;1905687;75;21075;-61
2022/07/05 10:05:27;;;;;;;9.10;7.25;;;32.20;39.60;;;;;;1903416;75;21050;-61
2022/07/05 10:07:58;;;;;;;10.25;7.30;;;32.20;39.70;;;;;;1821278;77;21120;-60
2022/07/05 10:10:29;;;;;;;11.43;7.35;;;32.30;40.00;;;;;;1815501;79;21034;-61
2022/07/05 10:13:01;;;;;;;14.15;6.90;;;32.40;40.00;;;;;;1853699;77;21105;-62
2022/07/05 10:15:35;;;;;;;13.88;8.20;;;32.50;39.70;;;;;;1854199;76;21037;-62
2022/07/05 10:18:05;;;;;;;;;;;32.50;39.40;;;;;;1856932;77;21163;-67
2022/07/05 10:20:45;;;;;;;10.28;6.60;;;32.70;39.60;;;;;;1854026;77;20207;-62
2022/07/05 10:23:16;;;;;;;11.30;7.67;;;32.70;39.60;;;;;;1835869;77;21025;-64
2022/07/05 10:25:49;;;;;;;10.50;5.92;;;32.70;39.20;;;;;;1835846;78;21056;-60
2022/07/05 10:28:19;;;;;;;8.68;6.10;;;32.70;39.00;;;;;;1835650;77;21120;-65
2022/07/05 10:30:52;;;;;;;13.70;9.75;;;32.80;39.20;;;;;;1835867;78;21096;-68
2022/07/05 10:36:05;;;;;;;9.80;5.50;;;32.80;38.70;;;;;;1854054;77;21449;-64
2022/07/05 10:38:40;;;;;;;12.88;7.20;;;32.90;38.80;;;;;;1854022;77;21077;-68
2022/07/05 10:41:12;;;;;;;14.30;6.97;;;33.00;38.60;;;;;;1853827;77;21150;-64
2022/07/05 10:43:42;;;;;;;13.43;6.12;;;33.10;39.00;;;;;;1854020;77;21081;-63
2022/07/05 10:46:11;;;;;;;8.28;5.95;;;33.10;38.20;;;;;;1853979;77;21119;-63
2022/07/05 10:48:41;;;;;;;14.63;7.03;;;33.20;38.40;;;;;;1853816;77;21171;-63
2022/07/05 11:51:59;;;;;;;10.90;5.47;;;33.10;38.40;;;;;;1959170;72;25818;-58
2022/07/05 11:57:23;;;;;;;8.93;5.78;;;33.30;38.40;;;;;;1815714;79;21061;-61
2022/07/05 11:59:53;;;;;;;6.90;5.65;;;33.30;37.70;;;;;;1858530;77;21095;-60
2022/07/05 12:02:22;;;;;;;6.62;5.22;;;33.30;37.50;;;;;;1815770;78;21021;-61
2022/07/05 12:04:52;;;;;;;8.05;6.47;;;33.40;37.40;;;;;;1858721;77;21518;-63
2022/07/05 12:07:33;;;;;;;8.35;5.65;;;33.50;38.00;;;;;;1815645;78;21045;-61
2022/07/05 12:12:52;;;;;;;12.15;6.17;;;33.50;38.20;;;;;;1815721;79;21081;-60
2022/07/05 12:15:22;;;;;;;8.95;6.58;;;33.40;38.30;;;;;;1858595;77;21088;-61
2022/07/05 12:17:54;;;;;;;9.95;5.70;;;33.40;37.50;;;;;;1815667;78;21108;-62
2022/07/05 12:20:25;;;;;;;11.48;8.38;;;33.30;37.70;;;;;;1858471;76;21502;-60
2022/07/05 12:22:54;;;;;;;9.10;5.35;;;33.30;38.10;;;;;;1815733;78;21037;-60
2022/07/05 12:25:34;;;;;;;8.08;4.97;;;33.40;38.20;;;;;;1858530;77;21135;-59
2022/07/05 12:28:07;;;;;;;7.53;5.45;;;33.50;38.00;;;;;;1887119;74;21081;-61
2022/07/05 12:30:37;;;;;;;7.22;6.03;;;33.50;37.90;;;;;;1929382;74;21421;-61
2022/07/05 12:33:09;;;;;;;7.40;5.75;;;33.50;37.50;;;;;;1929411;74;21009;-60
2022/07/05 12:35:46;;;;;;;9.73;6.47;;;33.50;38.40;;;;;;1929467;74;21006;-62
2022/07/05 12:38:20;;;;;;;9.85;5.67;;;33.50;37.80;;;;;;1929355;74;21100;-60
2022/07/05 12:41:00;;;;;;;9.93;5.78;;;33.60;37.60;;;;;;1929347;74;21017;-63
2022/07/05 12:43:29;;;;;;;12.30;5.97;;;33.50;37.80;;;;;;1929477;74;20994;-60
2022/07/05 12:46:06;;;;;;;13.78;6.15;;;33.50;37.80;;;;;;1929334;74;21029;-59
2022/07/05 12:48:36;;;;;;;8.58;5.72;;;33.30;37.60;;;;;;1929393;74;21026;-60
2022/07/05 12:51:07;;;;;;;12.07;5.67;;;33.30;37.50;;;;;;1929325;74;21173;-61
2022/07/05 12:59:22;;;;;;;7.35;5.78;;;33.30;38.20;;;;;;1929327;74;21045;-62
2022/07/05 13:01:52;;;;;;;9.13;5.65;;;33.30;38.10;;;;;;1928922;74;21026;-62
2022/07/05 13:04:21;;;;;;;6.45;5.67;;;33.30;38.20;;;;;;1895660;74;21096;-62
2022/07/05 13:06:54;;;;;;;11.15;6.33;;;33.40;37.70;;;;;;1928577;74;21065;-62
2022/07/05 13:09:34;;;;;;;6.92;6.22;;;33.40;37.20;;;;;;1928664;74;21013;-61
2022/07/05 13:12:24;;;;;;;10.63;6.60;;;33.40;37.60;;;;;;1928549;74;21029;-60
2022/07/05 13:14:54;;;;;;;8.23;6.17;;;33.40;37.90;;;;;;1928573;74;21179;-59
2022/07/05 13:17:24;;;;;;;8.60;6.03;;;33.50;37.80;;;;;;1928643;74;21158;-59
2022/07/05 13:19:54;;;;;;;8.75;7.85;;;33.50;37.80;;;;;;1928736;74;21026;-58
2022/07/05 13:22:23;;;;;;;11.40;7.05;;;33.60;37.70;;;;;;1928529;74;21099;-59
2022/07/05 13:24:54;;;;;;;15.25;6.12;;;33.60;38.00;;;;;;1928608;74;21154;-59
2022/07/05 13:27:23;;;;;;;10.45;6.12;;;33.70;37.70;;;;;;1928611;74;21049;-59
2022/07/05 13:29:53;;;;;;;11.20;5.90;;;33.70;37.80;;;;;;1922847;74;21045;-59
2022/07/05 13:32:22;;;;;;;8.90;5.95;;;33.50;37.60;;;;;;1921899;75;21046;-59
2022/07/05 13:34:52;;;;;;;13.98;6.28;;;33.50;37.80;;;;;;1922020;75;21069;-59
2022/07/05 13:37:21;;;;;;;10.72;6.28;;;33.40;37.90;;;;;;1921856;75;21053;-59
2022/07/05 13:39:50;;;;;;;9.45;5.78;;;33.30;38.00;;;;;;1921954;74;21073;-60
2022/07/05 13:42:20;;;;;;;14.93;5.90;;;33.30;37.90;;;;;;1921919;75;21096;-58
2022/07/05 13:44:49;;;;;;;8.10;5.67;;;33.40;38.20;;;;;;1921777;75;21034;-59
2022/07/05 13:47:18;;;;;;;9.20;6.67;;;33.40;38.10;;;;;;1921798;74;21026;-59
2022/07/05 13:49:48;;;;;;;10.68;7.53;;;33.30;38.40;;;;;;1921837;74;21132;-59
2022/07/05 13:52:17;;;;;;;13.25;6.37;;;33.30;38.30;;;;;;1921750;75;21006;-59
2022/07/05 13:54:46;;;;;;;11.63;6.05;;;33.30;38.20;;;;;;1921790;75;21151;-59
2022/07/05 13:57:16;;;;;;;9.33;6.10;;;33.30;38.20;;;;;;1921817;75;21065;-58
2022/07/05 13:59:45;;;;;;;12.03;6.10;;;33.30;38.30;;;;;;1921776;74;21102;-58
2022/07/05 14:02:14;;;;;;;6.08;5.47;;;33.30;38.30;;;;;;1921782;74;21030;-59
2022/07/05 14:04:44;;;;;;;15.30;6.47;;;33.40;38.10;;;;;;1921784;74;21077;-59
2022/07/05 14:07:13;;;;;;;9.35;6.50;;;33.50;38.20;;;;;;1921845;75;21097;-59
2022/07/05 14:09:44;;;;;;;7.15;5.42;;;33.60;38.20;;;;;;1921825;74;21065;-59
2022/07/05 14:12:13;;;;;;;6.90;6.05;;;33.60;37.80;;;;;;1922071;74;21025;-59
2022/07/05 14:14:42;;;;;;;8.70;5.50;;;33.60;37.70;;;;;;1921845;74;21065;-60
2022/07/05 14:17:12;;;;;;;9.48;5.97;;;33.60;38.00;;;;;;1921930;75;21038;-61